Terminal Aerodrome Forecast
Issued by NWS

Home | Current Version | Previous Version | Text Only | Print | Product List | Glossary On
Versions: 1 2 3 4 5 6 7 8 9 10 11 12 13 14 15 16 17 18 19 20 21 22 23
000
FTUS43 KAPX 240246 AAB
TAFAPN
TAF AMD
KAPN 240246Z 2403/2424 13009KT 3SM RA BR OVC005 WS014/16035KT
     FM241000 17009KT 5SM -RA BR OVC008 WS014/19030KT
     FM241400 22008KT 6SM -RA BR OVC014
     FM241900 26007KT 6SM -RA BR OVC016=

USA.gov is the U.S. government's official web portal to all federal, state and local government web resources and services.